Time;durP1;ratioP1;P1;durP2;ratioP2;P2;SDS_P1;SDS_P2;PMS_P1;PMS_P2;Temp;Humidity;BMP_temperature;BMP_pressure;BME280_temperature;BME280_humidity;BME280_pressure;Samples;Min_cycle;Max_cycle;Signal;HPM_P1;HPM_P2
2021/11/29 00:00:41;;;;;;;34.72;16.05;;;;;;;8.18;100.00;95168.75;5045322;28;20521;-67
2021/11/29 00:03:10;;;;;;;34.28;15.30;;;;;;;8.53;100.00;95229.31;5045502;28;20430;-67
2021/11/29 00:05:37;;;;;;;33.78;15.38;;;;;;;8.53;100.00;95234.81;5045211;28;20057;-68
2021/11/29 00:08:05;;;;;;;26.45;13.73;;;;;;;8.54;100.00;95234.44;5044813;28;20045;-68
2021/11/29 00:10:32;;;;;;;31.67;13.57;;;;;;;8.58;100.00;95226.13;5044923;28;20045;-67
2021/11/29 00:13:01;;;;;;;34.45;13.65;;;;;;;8.63;100.00;95222.97;5045093;28;20055;-67
2021/11/29 00:15:28;;;;;;;29.55;12.98;;;;;;;8.69;100.00;95221.34;5045096;28;20057;-68
2021/11/29 00:17:55;;;;;;;32.20;13.82;;;;;;;8.40;100.00;95175.75;5044394;28;20049;-68
2021/11/29 00:20:22;;;;;;;31.80;12.27;;;;;;;8.81;100.00;95215.34;5044940;28;20068;-68
2021/11/29 00:22:50;;;;;;;28.45;13.48;;;;;;;8.45;100.00;95156.03;5044718;28;20055;-67
2021/11/29 00:25:17;;;;;;;25.70;13.85;;;;;;;8.87;100.00;95210.97;5044670;28;20064;-67
2021/11/29 00:27:44;;;;;;;26.75;13.95;;;;;;;8.93;100.00;95198.34;5044987;28;20048;-69
2021/11/29 00:30:13;;;;;;;33.13;13.63;;;;;;;8.88;100.00;95210.56;5043507;28;20049;-67
2021/11/29 00:32:41;;;;;;;33.13;13.02;;;;;;;8.95;100.00;95207.78;5043434;28;20064;-67
2021/11/29 00:35:08;;;;;;;26.88;13.55;;;;;;;8.92;100.00;95205.03;5044785;28;20063;-68
2021/11/29 00:37:36;;;;;;;25.52;11.88;;;;;;;8.86;100.00;95204.69;5044747;28;20065;-68
2021/11/29 00:40:06;;;;;;;27.52;12.48;;;;;;;8.93;100.00;95192.81;5043243;28;20431;-66
2021/11/29 00:42:33;;;;;;;28.88;13.20;;;;;;;8.68;100.00;95161.81;5044706;28;20051;-67
2021/11/29 00:44:59;;;;;;;30.45;13.20;;;;;;;8.85;100.00;95186.53;5043545;28;20049;-65
2021/11/29 00:47:26;;;;;;;30.90;12.57;;;;;;;8.92;100.00;95180.19;5044704;28;20459;-65
2021/11/29 00:49:53;;;;;;;30.23;11.55;;;;;;;8.92;100.00;95174.66;5044820;28;20045;-66
2021/11/29 00:52:20;;;;;;;26.25;13.05;;;;;;;8.94;100.00;95177.81;5043182;28;20045;-64
2021/11/29 00:54:46;;;;;;;27.20;12.02;;;;;;;8.91;100.00;95184.16;5043229;28;20053;-64
2021/11/29 00:57:13;;;;;;;26.20;12.55;;;;;;;8.47;100.00;95137.13;5044714;28;20995;-64
2021/11/29 00:59:46;;;;;;;32.50;13.52;;;;;;;8.78;100.00;95175.56;5044353;28;20045;-65
2021/11/29 01:02:14;;;;;;;34.42;13.38;;;;;;;8.79;100.00;95173.56;5044168;28;20057;-67
2021/11/29 01:04:40;;;;;;;48.25;20.42;;;;;;;7.53;100.00;94963.53;5044719;28;20057;-65
2021/11/29 01:07:08;;;;;;;43.67;18.95;;;;;;;8.73;100.00;95167.69;5043759;28;20057;-64
2021/11/29 01:09:35;;;;;;;46.17;18.97;;;;;;;8.84;100.00;95145.53;4083047;28;10001615;-64
2021/11/29 01:12:03;;;;;;;41.55;17.05;;;;;;;8.60;100.00;95096.84;5052323;28;20052;-65
2021/11/29 01:14:30;;;;;;;39.72;16.48;;;;;;;8.88;100.00;95135.28;5044800;28;20065;-64
2021/11/29 01:16:57;;;;;;;36.83;14.93;;;;;;;8.90;100.00;95121.81;5043948;28;20515;-64
2021/11/29 01:19:23;;;;;;;34.92;16.40;;;;;;;8.86;100.00;95099.00;5042866;28;20057;-64
2021/11/29 01:21:50;;;;;;;39.08;16.52;;;;;;;8.88;100.00;95124.22;5047011;28;20467;-65
2021/11/29 01:24:17;;;;;;;34.70;15.40;;;;;;;8.69;100.00;95086.13;5046999;28;20127;-66
2021/11/29 01:26:44;;;;;;;30.50;13.68;;;;;;;8.69;100.00;95066.81;5046797;28;20086;-64
2021/11/29 01:29:11;;;;;;;29.52;14.35;;;;;;;8.85;100.00;95094.69;5048054;28;20049;-64
2021/11/29 01:31:37;;;;;;;31.13;14.23;;;;;;;8.85;100.00;95089.91;5048187;28;20061;-64
2021/11/29 01:34:04;;;;;;;30.38;14.30;;;;;;;8.93;100.00;95098.94;5048393;28;20064;-63
2021/11/29 01:36:31;;;;;;;36.85;16.30;;;;;;;8.65;100.00;95024.63;5047780;28;20053;-65
2021/11/29 01:38:58;;;;;;;29.95;14.07;;;;;;;8.97;100.00;95066.56;5047950;28;20525;-64
2021/11/29 01:41:24;;;;;;;29.58;14.55;;;;;;;8.98;100.00;95068.13;5047824;28;20048;-64
2021/11/29 01:43:51;;;;;;;27.75;13.50;;;;;;;8.94;100.00;95067.38;5048030;28;20090;-67
2021/11/29 01:46:18;;;;;;;31.67;14.20;;;;;;;9.06;100.00;95058.59;5047665;28;20057;-65
2021/11/29 01:48:45;;;;;;;31.33;13.90;;;;;;;9.02;100.00;95044.03;5047714;28;20053;-64
2021/11/29 01:51:12;;;;;;;35.80;14.02;;;;;;;8.71;100.00;95009.22;5046374;28;20068;-66
2021/11/29 01:53:39;;;;;;;30.20;13.73;;;;;;;9.02;100.00;95055.09;5047776;28;20056;-65
2021/11/29 01:56:06;;;;;;;29.27;12.98;;;;;;;8.97;100.00;95038.94;5047321;28;20053;-66
2021/11/29 01:58:37;;;;;;;25.77;11.38;;;;;;;8.86;100.00;95035.50;5047880;28;20514;-65
2021/11/29 02:01:13;;;;;;;27.23;11.70;;;;;;;8.94;100.00;95029.53;5047760;28;20045;-64
2021/11/29 02:03:46;;;;;;;20.63;11.00;;;;;;;8.90;100.00;95033.47;5046085;28;20082;-65
2021/11/29 02:06:14;;;;;;;31.33;12.52;;;;;;;8.93;100.00;95010.59;5047616;28;20045;-64
2021/11/29 02:08:41;;;;;;;28.40;12.10;;;;;;;8.56;100.00;94974.66;5047444;28;20140;-66
2021/11/29 02:11:08;;;;;;;23.20;12.05;;;;;;;8.71;100.00;94992.69;5047481;28;20498;-65
2021/11/29 02:13:35;;;;;;;39.67;15.75;;;;;;;8.93;100.00;94994.03;5047718;28;20053;-65
2021/11/29 02:16:04;;;;;;;33.78;13.38;;;;;;;8.84;100.00;94986.22;5046294;28;20052;-65
2021/11/29 02:18:33;;;;;;;28.15;10.85;;;;;;;9.00;100.00;94977.38;5046801;28;20059;-66
2021/11/29 02:21:09;;;;;;;24.13;10.13;;;;;;;8.92;100.00;95006.25;5047144;28;20504;-65
2021/11/29 02:23:42;;;;;;;21.27;10.43;;;;;;;8.95;100.00;94958.50;5047320;28;20072;-65
2021/11/29 02:26:10;;;;;;;23.48;10.95;;;;;;;8.92;100.00;94975.88;5046854;28;20463;-64
2021/11/29 02:28:40;;;;;;;31.70;13.27;;;;;;;8.55;100.00;94906.88;5047526;28;20164;-65
2021/11/29 02:31:12;;;;;;;28.83;12.90;;;;;;;8.82;100.00;94954.72;5047387;28;20059;-65
2021/11/29 02:33:39;;;;;;;23.00;10.82;;;;;;;8.95;100.00;94986.13;5046178;28;20064;-65
2021/11/29 02:36:06;;;;;;;18.05;10.30;;;;;;;8.92;100.00;94975.88;5045549;28;20060;-65
2021/11/29 02:38:33;;;;;;;33.35;16.48;;;;;;;8.66;100.00;94902.03;5046874;28;20099;-67
2021/11/29 02:41:01;;;;;;;33.60;16.50;;;;;;;8.97;100.00;94945.06;5047137;28;20052;-64
2021/11/29 02:43:27;;;;;;;34.35;16.27;;;;;;;8.95;100.00;94947.47;5047027;28;20049;-65
2021/11/29 02:45:54;;;;;;;36.35;17.40;;;;;;;9.00;100.00;94944.25;5047005;28;20053;-65
2021/11/29 02:48:40;;;;;;;43.70;18.80;;;;;;;9.10;100.00;94965.47;5046800;28;20053;-65
2021/11/29 02:51:07;;;;;;;36.05;16.88;;;;;;;8.91;100.00;94941.22;5045313;28;20052;-65
2021/11/29 02:53:34;;;;;;;41.85;18.17;;;;;;;8.84;100.00;94935.75;5047030;28;20060;-65
2021/11/29 02:56:01;;;;;;;40.38;16.83;;;;;;;8.81;100.00;94920.00;5046029;28;20091;-65
2021/11/29 02:58:28;;;;;;;36.17;17.77;;;;;;;8.83;100.00;94928.66;5046644;28;20060;-65
2021/11/29 03:00:55;;;;;;;38.55;18.38;;;;;;;8.82;100.00;94921.59;5046705;28;20052;-66
2021/11/29 03:03:22;;;;;;;56.25;23.92;;;;;;;8.78;100.00;94926.34;5046649;28;20048;-67
2021/11/29 03:05:48;;;;;;;52.78;19.40;;;;;;;8.77;100.00;94913.75;5046408;28;20470;-66
2021/11/29 03:08:15;;;;;;;46.45;18.98;;;;;;;8.73;100.00;94924.03;5046143;28;20057;-66
2021/11/29 03:10:42;;;;;;;56.30;24.30;;;;;;;8.54;100.00;94861.16;5046352;28;20573;-65
2021/11/29 03:13:08;;;;;;;80.63;32.13;;;;;;;8.73;100.00;94899.19;5046417;28;20064;-66
2021/11/29 03:15:35;;;;;;;72.03;30.63;;;;;;;8.81;100.00;94892.41;5045502;28;20057;-67
2021/11/29 03:18:02;;;;;;;63.92;29.42;;;;;;;8.63;100.00;94878.03;5046216;28;20057;-64
2021/11/29 03:20:29;;;;;;;59.33;25.27;;;;;;;8.82;100.00;94892.00;5046305;28;20448;-65
2021/11/29 03:22:55;;;;;;;50.83;24.35;;;;;;;8.28;100.00;94812.19;5046214;28;20519;-65
2021/11/29 03:25:23;;;;;;;31.63;15.40;;;;;;;8.84;100.00;94880.53;5044657;28;20053;-65
2021/11/29 03:27:49;;;;;;;33.58;13.70;;;;;;;8.77;100.00;94881.41;5044657;28;20053;-66
2021/11/29 03:30:16;;;;;;;27.30;13.52;;;;;;;8.81;100.00;94870.31;5045914;28;20057;-65
2021/11/29 03:32:43;;;;;;;34.28;15.27;;;;;;;8.79;100.00;94878.22;5044449;28;20064;-66
2021/11/29 03:35:10;;;;;;;31.88;14.23;;;;;;;8.88;100.00;94870.25;5045502;28;20048;-67
2021/11/29 03:37:37;;;;;;;27.00;12.30;;;;;;;8.82;100.00;94866.41;5045978;28;20053;-66
2021/11/29 03:40:06;;;;;;;34.42;15.10;;;;;;;8.87;100.00;94854.88;5045737;28;20219;-65
2021/11/29 03:42:32;;;;;;;36.10;17.08;;;;;;;8.51;100.00;94795.78;5044104;28;20508;-66
2021/11/29 03:45:00;;;;;;;46.33;20.30;;;;;;;8.14;100.00;94743.38;5044331;28;20088;-65
2021/11/29 03:47:27;;;;;;;46.75;20.52;;;;;;;8.75;100.00;94845.19;5045881;28;20052;-66
2021/11/29 03:49:55;;;;;;;45.08;19.75;;;;;;;8.64;100.00;94843.72;5045931;28;20066;-65
2021/11/29 03:52:22;;;;;;;89.50;33.70;;;;;;;7.97;100.00;94744.34;5046065;28;20060;-65
2021/11/29 03:54:50;;;;;;;101.40;40.17;;;;;;;8.60;100.00;94849.28;5045227;28;20049;-66
2021/11/29 03:57:18;;;;;;;74.05;31.38;;;;;;;8.71;100.00;94843.66;5043637;28;20443;-66
2021/11/29 03:59:44;;;;;;;84.53;31.83;;;;;;;8.68;100.00;94838.94;5044710;28;20559;-66
2021/11/29 04:02:11;;;;;;;77.03;28.98;;;;;;;8.53;100.00;94820.97;5045370;28;20055;-65
2021/11/29 04:04:39;;;;;;;62.88;28.42;;;;;;;8.57;100.00;94838.28;5045350;28;20123;-65
2021/11/29 04:07:05;;;;;;;57.70;27.35;;;;;;;8.57;100.00;94843.78;5045302;28;20151;-65
2021/11/29 04:09:32;;;;;;;63.45;28.63;;;;;;;8.24;100.00;94803.97;5045091;28;20092;-66
2021/11/29 04:11:59;;;;;;;69.63;30.60;;;;;;;8.29;100.00;94811.00;5045276;28;20060;-66
2021/11/29 04:14:26;;;;;;;63.20;31.13;;;;;;;8.44;100.00;94831.72;5044844;28;20490;-67
2021/11/29 04:16:53;;;;;;;62.17;29.55;;;;;;;8.42;100.00;94836.88;5045106;28;20055;-66
2021/11/29 04:19:19;;;;;;;60.58;29.92;;;;;;;8.38;100.00;94825.06;5045064;28;20056;-67
2021/11/29 04:21:47;;;;;;;46.40;23.08;;;;;;;8.49;100.00;94825.75;5043527;28;20096;-66
2021/11/29 04:24:16;;;;;;;47.75;24.15;;;;;;;8.44;100.00;94812.41;5045277;28;20419;-65
2021/11/29 04:26:50;;;;;;;44.92;20.58;;;;;;;8.28;100.00;94792.91;5044811;28;20053;-67
2021/11/29 04:29:21;;;;;;;35.70;17.85;;;;;;;8.34;100.00;94813.31;5045127;28;20060;-66
2021/11/29 04:31:48;;;;;;;33.05;17.25;;;;;;;8.25;100.00;94815.78;5044161;28;20056;-66
2021/11/29 04:34:15;;;;;;;29.85;15.63;;;;;;;8.22;100.00;94811.81;5045042;28;20053;-67
2021/11/29 04:36:43;;;;;;;56.25;24.48;;;;;;;8.01;100.00;94783.69;5044478;28;20484;-67
2021/11/29 04:39:10;;;;;;;50.35;23.70;;;;;;;8.17;100.00;94817.00;5043405;28;20543;-67
2021/11/29 04:41:37;;;;;;;23.90;11.60;;;;;;;8.22;100.00;94816.56;5044315;28;20508;-65
2021/11/29 04:44:06;;;;;;;20.08;9.98;;;;;;;8.22;100.00;94827.59;5044977;28;20499;-68
2021/11/29 04:46:33;;;;;;;22.20;9.90;;;;;;;8.46;100.00;94827.34;5043112;28;20408;-66
2021/11/29 04:49:01;;;;;;;22.95;10.73;;;;;;;8.60;100.00;94827.19;5044967;28;20057;-64
2021/11/29 04:51:28;;;;;;;24.80;12.02;;;;;;;8.60;100.00;94820.91;5044483;28;20053;-66
2021/11/29 04:53:55;;;;;;;29.02;14.40;;;;;;;8.52;100.00;94819.44;5044798;28;20514;-69
2021/11/29 04:56:22;;;;;;;23.92;11.45;;;;;;;8.32;100.00;94782.59;5043408;28;20061;-65
2021/11/29 04:58:49;;;;;;;27.90;13.18;;;;;;;8.64;100.00;94810.59;5044420;28;20436;-67
2021/11/29 05:01:16;;;;;;;35.13;15.32;;;;;;;8.71;100.00;94816.06;5044475;28;20060;-67
2021/11/29 05:03:43;;;;;;;35.72;15.68;;;;;;;8.47;100.00;94745.41;5044484;28;20529;-66
2021/11/29 05:06:10;;;;;;;38.33;16.73;;;;;;;9.10;100.00;94838.44;5044167;28;20617;-65
2021/11/29 05:08:38;;;;;;;40.95;17.27;;;;;;;9.22;100.00;94835.09;5043220;28;20053;-66
2021/11/29 05:11:08;;;;;;;32.38;15.00;;;;;;;9.13;100.00;94832.06;5043059;28;20083;-66
2021/11/29 05:13:35;;;;;;;29.92;12.68;;;;;;;9.18;100.00;94829.63;5043033;28;20091;-66
2021/11/29 05:16:02;;;;;;;30.23;13.02;;;;;;;8.65;100.00;94738.44;5042653;28;20540;-67
2021/11/29 05:18:30;;;;;;;25.67;11.30;;;;;;;9.18;100.00;94812.28;5044722;28;20114;-66
2021/11/29 05:20:58;;;;;;;29.65;13.65;;;;;;;8.61;100.00;94712.91;5043888;28;20045;-65
2021/11/29 05:23:25;;;;;;;28.20;14.85;;;;;;;9.36;100.00;94803.75;5042840;28;20423;-67
2021/11/29 05:25:52;;;;;;;67.75;29.83;;;;;;;9.29;100.00;94812.91;5044272;28;20065;-66
2021/11/29 05:28:19;;;;;;;63.60;26.25;;;;;;;8.94;100.00;94783.03;5044403;28;20052;-67
2021/11/29 05:30:45;;;;;;;58.90;26.15;;;;;;;9.09;100.00;94814.75;5042602;28;20082;-68
2021/11/29 05:33:12;;;;;;;57.70;25.58;;;;;;;9.08;100.00;94807.69;5044112;28;20081;-68
2021/11/29 05:35:39;;;;;;;48.80;22.13;;;;;;;8.62;100.00;94742.03;5042573;28;20044;-66
2021/11/29 05:38:07;;;;;;;45.00;21.33;;;;;;;9.07;100.00;94806.13;5044213;28;20442;-66
2021/11/29 05:40:34;;;;;;;56.83;25.65;;;;;;;9.08;100.00;94802.94;5044380;28;20063;-67
2021/11/29 05:43:00;;;;;;;47.70;23.65;;;;;;;8.55;100.00;94709.00;5042540;28;20156;-67
2021/11/29 05:45:27;;;;;;;45.92;22.42;;;;;;;8.99;100.00;94779.81;5031270;28;20045;-63
2021/11/29 05:47:54;;;;;;;104.97;41.00;;;;;;;8.48;100.00;94694.53;5033200;28;20045;-63
2021/11/29 05:50:21;;;;;;;133.07;51.28;;;;;;;9.23;100.00;94798.78;5034436;28;20461;-64
2021/11/29 05:52:48;;;;;;;107.88;42.58;;;;;;;9.20;100.00;94790.53;5024078;28;20049;-64
2021/11/29 05:55:16;;;;;;;78.93;33.22;;;;;;;9.33;100.00;94802.59;5023898;28;20061;-64
2021/11/29 05:57:43;;;;;;;77.88;32.85;;;;;;;9.45;100.00;94799.28;5023827;28;20068;-64
2021/11/29 06:00:17;;;;;;;62.72;28.65;;;;;;;9.53;100.00;94780.59;5022458;28;20058;-64
2021/11/29 06:02:44;;;;;;;46.75;21.95;;;;;;;8.99;100.00;94710.78;5023931;28;20065;-65
2021/11/29 06:05:13;;;;;;;54.83;24.35;;;;;;;9.29;100.00;94737.56;5023545;28;20096;-65
2021/11/29 06:07:40;;;;;;;44.67;23.38;;;;;;;9.63;100.00;94774.88;5022693;28;20071;-64
2021/11/29 06:10:09;;;;;;;41.42;22.25;;;;;;;9.76;100.00;94789.69;5027054;28;20045;-63
2021/11/29 06:12:36;;;;;;;47.28;24.63;;;;;;;9.85;100.00;94789.94;5026340;28;20056;-62
2021/11/29 06:15:05;;;;;;;49.30;21.70;;;;;;;9.90;100.00;94811.56;5027466;28;20248;-62
2021/11/29 06:17:31;;;;;;;83.32;38.70;;;;;;;9.55;100.00;94734.75;5027248;28;20524;-63
2021/11/29 06:19:58;;;;;;;80.75;36.63;;;;;;;9.58;100.00;94714.56;5027723;28;20057;-64
2021/11/29 06:22:25;;;;;;;72.95;34.08;;;;;;;9.95;100.00;94761.31;5026817;28;20049;-64
2021/11/29 06:24:52;;;;;;;85.90;36.55;;;;;;;10.45;100.00;94811.81;5026965;28;20425;-64
2021/11/29 06:27:18;;;;;;;70.05;32.85;;;;;;;10.46;100.00;94815.38;5026843;28;20425;-64
2021/11/29 06:29:45;;;;;;;75.35;36.40;;;;;;;10.72;100.00;94830.31;5027304;28;20056;-63
2021/11/29 06:32:12;;;;;;;89.45;42.30;;;;;;;10.72;100.00;94791.56;5027044;28;20060;-64
2021/11/29 06:34:39;;;;;;;79.18;34.85;;;;;;;10.97;100.00;94811.22;5027897;28;20088;-63
2021/11/29 06:37:07;;;;;;;63.30;30.65;;;;;;;10.97;100.00;94780.75;5026926;28;20140;-63
2021/11/29 06:39:35;;;;;;;51.00;24.05;;;;;;;11.17;100.00;94812.75;5027053;28;20416;-63
2021/11/29 06:42:04;;;;;;;43.03;18.98;;;;;;;11.45;100.00;94819.66;5026582;28;20053;-68
2021/11/29 06:44:30;;;;;;;40.17;17.52;;;;;;;10.40;100.00;94637.97;5029081;28;20050;-64
2021/11/29 06:46:57;;;;;;;28.98;15.48;;;;;;;11.02;100.00;94672.22;5031903;28;20053;-63
2021/11/29 06:49:24;;;;;;;36.08;14.23;;;;;;;11.78;100.00;94763.06;5038987;28;20052;-62
2021/11/29 06:51:51;;;;;;;27.25;13.50;;;;;;;11.25;100.00;94719.16;5042550;28;20053;-61
2021/11/29 06:54:20;;;;;;;33.15;13.13;;;;;;;11.83;100.00;94787.50;5037408;28;20064;-63
2021/11/29 06:56:48;;;;;;;48.58;18.10;;;;;;;12.14;100.00;94791.47;5025757;28;20391;-63
2021/11/29 06:59:15;;;;;;;45.38;18.45;;;;;;;12.90;100.00;94887.09;5034905;28;20048;-61
2021/11/29 07:01:42;;;;;;;44.67;16.88;;;;;;;12.94;100.00;94888.56;5034701;28;20053;-62
2021/11/29 07:04:09;;;;;;;42.67;12.77;;;;;;;12.60;100.00;94827.16;5058950;28;20443;-63
2021/11/29 07:06:36;;;;;;;32.00;11.57;;;;;;;12.64;100.00;94833.41;5064391;28;20080;-63
2021/11/29 07:09:03;;;;;;;35.83;11.93;;;;;;;12.61;100.00;94820.41;5033916;28;20057;-64
2021/11/29 07:11:33;;;;;;;28.83;11.05;;;;;;;12.74;100.00;94874.00;5046261;28;20907;-63
2021/11/29 07:14:00;;;;;;;26.00;9.07;;;;;;;12.78;100.00;94858.03;5044890;28;20084;-65
2021/11/29 07:16:26;;;;;;;27.48;10.20;;;;;;;12.79;100.00;94815.13;5045903;28;20088;-65
2021/11/29 07:18:53;;;;;;;39.05;12.07;;;;;;;13.23;100.00;94860.78;5047497;28;20060;-65
2021/11/29 07:21:20;;;;;;;40.47;11.95;;;;;;;13.01;100.00;94818.91;5030614;28;20049;-68
2021/11/29 07:23:47;;;;;;;25.88;8.93;;;;;;;13.50;100.00;94831.38;5024093;28;20057;-64
2021/11/29 07:26:14;;;;;;;47.35;15.30;;;;;;;13.44;100.00;94783.09;5023836;28;20053;-63
2021/11/29 07:28:40;;;;;;;40.08;17.67;;;;;;;13.31;100.00;94715.56;5024118;28;20132;-66
2021/11/29 07:31:07;;;;;;;16.25;4.68;;;;;;;14.44;96.66;94842.75;5024086;28;20053;-63
2021/11/29 07:33:35;;;;;;;15.98;5.13;;;;;;;14.65;96.25;94836.47;5040385;28;20041;-65
2021/11/29 07:36:02;;;;;;;22.02;5.40;;;;;;;14.34;95.09;94793.72;5037893;28;20056;-67
2021/11/29 07:38:33;;;;;;;18.20;4.90;;;;;;;13.18;93.44;94570.22;5035184;28;20049;-69
2021/11/29 07:41:00;;;;;;;19.17;10.13;;;;;;;13.94;93.98;94698.81;5025168;28;20053;-65
2021/11/29 07:43:27;;;;;;;24.52;7.57;;;;;;;13.93;94.36;94663.06;5040532;28;20048;-68
2021/11/29 07:45:55;;;;;;;16.58;5.55;;;;;;;13.78;93.61;94621.06;5044984;28;20455;-63
2021/11/29 07:48:22;;;;;;;18.02;4.88;;;;;;;14.85;95.17;94806.28;5045390;28;20135;-65
2021/11/29 07:50:49;;;;;;;17.90;5.70;;;;;;;14.42;95.08;94739.34;5044804;28;20057;-64
2021/11/29 07:53:16;;;;;;;11.60;4.72;;;;;;;14.90;93.37;94769.47;5038175;28;20411;-68
2021/11/29 07:55:43;;;;;;;13.57;5.05;;;;;;;15.35;91.06;94811.59;5024487;28;20240;-65
2021/11/29 07:58:10;;;;;;;18.25;7.90;;;;;;;15.53;90.40;94817.34;5037853;28;20052;-66
2021/11/29 08:00:37;;;;;;;13.77;6.30;;;;;;;15.49;87.25;94788.78;5042157;28;20056;-66
2021/11/29 08:03:06;;;;;;;15.25;5.22;;;;;;;15.64;86.15;94812.13;5027840;28;20056;-62
2021/11/29 08:05:34;;;;;;;10.55;3.85;;;;;;;16.28;85.16;94827.16;5039294;28;20056;-63
2021/11/29 08:08:07;;;;;;;16.05;4.63;;;;;;;16.76;81.42;94845.13;5034224;28;20152;-67
2021/11/29 08:10:36;;;;;;;15.30;3.70;;;;;;;17.12;78.70;94843.16;5036781;28;20037;-65
2021/11/29 08:13:07;;;;;;;12.05;4.32;;;;;;;16.84;77.67;94728.94;5034116;28;20347;-64
2021/11/29 08:15:36;;;;;;;12.45;4.68;;;;;;;17.56;75.75;94819.19;5037336;28;20048;-64
2021/11/29 08:18:04;;;;;;;15.10;5.50;;;;;;;17.67;76.40;94852.31;5064475;28;20190;-65
2021/11/29 08:20:31;;;;;;;16.30;6.68;;;;;;;17.64;76.47;94854.03;5074277;28;20195;-69
2021/11/29 08:22:58;;;;;;;14.52;7.13;;;;;;;16.82;75.83;94709.09;5074830;28;20064;-61
2021/11/29 08:25:25;;;;;;;11.27;5.20;;;;;;;17.40;75.56;94816.69;5065000;28;20048;-67
2021/11/29 08:27:52;;;;;;;20.48;7.70;;;;;;;15.57;74.42;94566.09;5070042;28;20276;-64
2021/11/29 08:30:21;;;;;;;20.98;7.78;;;;;;;16.97;73.28;94774.31;5061572;28;20143;-64
2021/11/29 08:32:49;;;;;;;17.08;6.82;;;;;;;17.38;71.18;94880.00;5047022;28;20051;-64
2021/11/29 08:35:17;;;;;;;19.38;7.15;;;;;;;16.70;72.51;94808.63;5080731;28;20500;-67
2021/11/29 08:37:52;;;;;;;11.10;4.38;;;;;;;16.90;70.68;94869.72;5080981;28;20040;-65
2021/11/29 08:40:27;;;;;;;11.32;4.85;;;;;;;15.89;70.38;94772.84;5064496;28;20048;-64
2021/11/29 08:43:03;;;;;;;6.45;2.80;;;;;;;16.35;69.06;94866.75;5076030;28;20052;-63
2021/11/29 08:45:32;;;;;;;6.50;3.22;;;;;;;15.60;69.72;94786.34;5061499;28;20084;-63
2021/11/29 08:48:05;;;;;;;4.78;1.98;;;;;;;15.52;68.81;94809.44;5034576;28;20049;-66
2021/11/29 08:50:33;;;;;;;6.88;2.60;;;;;;;16.02;69.88;94842.56;5024489;28;20558;-63
2021/11/29 08:53:05;;;;;;;2.33;1.35;;;;;;;16.08;67.82;94835.13;5025670;28;20198;-65
2021/11/29 08:55:34;;;;;;;2.88;1.60;;;;;;;16.23;67.50;94825.72;5032705;28;20050;-64
2021/11/29 08:58:05;;;;;;;11.60;5.00;;;;;;;16.28;66.87;94805.56;5042149;28;20048;-64
2021/11/29 09:00:33;;;;;;;1.00;0.80;;;;;;;16.42;65.49;94838.50;5038965;28;20054;-63
2021/11/29 09:03:03;;;;;;;2.15;0.90;;;;;;;16.52;65.22;94837.31;5032454;28;20048;-67
2021/11/29 09:05:31;;;;;;;1.98;1.10;;;;;;;15.65;64.78;94706.88;5030042;28;20099;-65
2021/11/29 09:07:57;;;;;;;2.70;1.30;;;;;;;15.86;65.20;94745.84;5024578;28;20049;-63
2021/11/29 09:10:24;;;;;;;2.15;1.30;;;;;;;16.54;65.00;94860.00;5023633;28;20061;-66
2021/11/29 09:12:51;;;;;;;3.40;1.23;;;;;;;15.53;65.25;94704.94;5024697;28;20588;-66
2021/11/29 09:15:20;;;;;;;1.75;1.20;;;;;;;16.32;65.03;94838.94;5022540;28;20513;-69
2021/11/29 09:17:48;;;;;;;5.78;1.60;;;;;;;16.19;65.40;94819.50;5033229;28;20065;-62
2021/11/29 09:20:19;;;;;;;4.38;1.30;;;;;;;16.24;65.06;94810.53;5028296;28;20098;-66
2021/11/29 09:22:47;;;;;;;2.63;1.40;;;;;;;16.16;64.88;94825.22;5036425;28;20145;-67
2021/11/29 09:25:14;;;;;;;4.05;1.20;;;;;;;15.34;63.35;94718.00;5037044;28;20049;-63
2021/11/29 09:27:43;;;;;;;5.55;1.42;;;;;;;15.77;64.17;94782.13;5027644;28;20057;-63
2021/11/29 09:30:12;;;;;;;4.10;1.70;;;;;;;15.49;67.54;94816.69;5035728;28;20067;-63
2021/11/29 09:32:39;;;;;;;2.45;1.35;;;;;;;15.34;69.53;94831.59;5051940;28;20045;-64
2021/11/29 09:35:12;;;;;;;4.20;1.92;;;;;;;15.27;70.60;94832.63;5043528;28;20049;-64
2021/11/29 09:37:40;;;;;;;6.03;1.60;;;;;;;14.43;68.25;94710.28;5043988;28;20049;-62
2021/11/29 09:40:11;;;;;;;3.90;1.50;;;;;;;14.90;66.84;94791.78;5055871;28;20092;-66
2021/11/29 09:42:39;;;;;;;2.33;1.52;;;;;;;15.60;65.58;94844.97;5064906;28;20060;-66
2021/11/29 09:45:11;;;;;;;4.63;1.88;;;;;;;15.76;66.34;94861.50;5067326;28;20595;-63
2021/11/29 09:47:38;;;;;;;2.08;1.45;;;;;;;15.74;64.76;94869.56;5062593;28;20066;-63
2021/11/29 09:50:06;;;;;;;3.72;1.25;;;;;;;15.66;66.08;94879.44;5035381;28;20053;-64
2021/11/29 09:52:33;;;;;;;3.53;1.92;;;;;;;15.69;67.48;94878.53;5045752;28;20308;-64
2021/11/29 09:55:00;;;;;;;2.85;1.30;;;;;;;15.73;66.43;94864.44;5047152;28;20049;-63
2021/11/29 09:57:27;;;;;;;2.90;1.58;;;;;;;15.03;66.39;94812.03;5047565;28;20496;-65
2021/11/29 09:59:54;;;;;;;6.30;3.00;;;;;;;15.06;67.02;94811.13;5045516;28;20053;-65
2021/11/29 10:02:21;;;;;;;2.55;1.65;;;;;;;15.31;66.76;94850.03;5043011;28;20050;-62
2021/11/29 10:04:49;;;;;;;3.95;2.13;;;;;;;15.47;67.28;94879.75;5027072;28;20049;-62
2021/11/29 10:07:27;;;;;;;2.97;1.60;;;;;;;14.52;69.71;94771.63;5058562;28;20048;-67
2021/11/29 10:09:57;;;;;;;2.75;1.45;;;;;;;14.05;70.78;94760.50;5044666;28;20155;-65
2021/11/29 10:12:27;;;;;;;4.38;2.03;;;;;;;14.73;72.50;94871.97;5054312;28;20054;-62
2021/11/29 10:15:13;;;;;;;4.93;1.83;;;;;;;14.67;73.42;94884.13;5043662;28;20060;-64
2021/11/29 10:17:40;;;;;;;3.88;2.42;;;;;;;13.54;72.82;94726.38;5034221;28;20511;-67
2021/11/29 10:20:30;;;;;;;2.85;1.67;;;;;;;14.60;72.63;94901.09;5035635;28;20057;-65
2021/11/29 10:23:04;;;;;;;2.83;1.67;;;;;;;14.10;72.53;94768.25;5039245;28;20050;-66
2021/11/29 10:25:31;;;;;;;6.97;2.53;;;;;;;14.16;73.79;94719.16;5026625;28;20060;-66
2021/11/29 10:27:58;;;;;;;27.55;6.20;;;;;;;15.27;72.92;94871.66;5027385;28;20427;-66
2021/11/29 10:30:29;;;;;;;44.60;16.45;;;;;;;15.46;67.49;94878.22;5026136;28;20045;-67
2021/11/29 10:32:56;;;;;;;11.65;4.60;;;;;;;15.20;67.15;94841.25;5046355;28;20053;-63
2021/11/29 10:35:32;;;;;;;8.77;3.97;;;;;;;15.55;67.52;94876.25;5060548;28;20049;-63
2021/11/29 10:38:00;;;;;;;6.40;3.00;;;;;;;15.47;67.84;94891.72;5034379;28;20124;-64
2021/11/29 10:40:28;;;;;;;7.03;3.47;;;;;;;15.08;67.78;94822.56;5060454;28;20056;-66
2021/11/29 10:43:03;;;;;;;5.53;2.47;;;;;;;15.66;66.61;94904.56;5063683;28;20110;-66
2021/11/29 10:45:30;;;;;;;3.03;1.85;;;;;;;15.24;64.72;94839.13;5046569;28;20131;-66
2021/11/29 10:47:57;;;;;;;2.75;1.90;;;;;;;15.73;63.58;94892.34;5040623;28;20106;-62
2021/11/29 10:50:28;;;;;;;1.58;1.42;;;;;;;15.42;62.78;94822.53;5038489;28;20052;-65
2021/11/29 10:53:11;;;;;;;18.20;6.90;;;;;;;16.05;63.00;94948.53;5026572;28;20508;-63
2021/11/29 10:56:00;;;;;;;3.65;1.85;;;;;;;16.02;61.94;94904.78;5031134;28;20053;-65
2021/11/29 10:58:38;;;;;;;7.03;1.92;;;;;;;15.36;61.97;94829.91;5031386;28;20133;-64
2021/11/29 11:01:05;;;;;;;3.95;1.38;;;;;;;14.83;64.47;94815.09;5044042;28;20172;-63
2021/11/29 11:03:49;;;;;;;1.98;1.27;;;;;;;14.29;73.38;94944.69;5041320;28;20519;-60
2021/11/29 11:06:16;;;;;;;1.73;1.10;;;;;;;13.78;77.35;95018.94;5027379;28;20046;-62
2021/11/29 11:08:42;;;;;;;3.70;1.30;;;;;;;12.61;86.61;95031.47;5041631;28;20132;-63
2021/11/29 11:11:42;;;;;;;6.15;2.25;;;;;;;11.99;92.52;95028.88;5044688;28;20559;-64
2021/11/29 11:14:13;;;;;;;6.88;1.80;;;;;;;11.03;90.53;94975.69;5039128;28;20531;-65
2021/11/29 11:16:56;;;;;;;14.60;4.68;;;;;;;11.05;95.38;95009.31;5026088;28;20731;-64
2021/11/29 11:19:28;;;;;;;9.52;5.03;;;;;;;9.32;95.82;94723.69;5030795;28;20515;-64
2021/11/29 11:22:10;;;;;;;6.53;2.85;;;;;;;10.99;96.03;94986.03;5035075;28;20049;-61
2021/11/29 11:24:39;;;;;;;4.82;2.55;;;;;;;11.05;94.54;94926.19;5029072;28;20440;-61
2021/11/29 11:27:07;;;;;;;8.07;3.72;;;;;;;11.68;93.20;94986.72;5044378;28;20507;-64